EGLL - London / Heathrow Airport
Distance from station: E 5mi, 14km
Updated: 12/11/2017 8:20pm
Clear
Clear
 Wind from W
Wind: W 6 mph , 9 km/h
Temperature: 27°F , -3°C
Wind Chill: 20°F , -7°C
Dew Point: 25°F , -4°C
Humidity: 93%
Barometer: 29.65 inHg , 1004 hPa
Summary: Clear
Visibility: greater than 7 miles , 10 km
2017/12/12 04:20 EGLL 120420Z 28005KT CAVOK M03/M04 Q1004 NOSIG